sensor_id;sensor_type;location;lat;lon;timestamp;P1;durP1;ratioP1;P2;durP2;ratioP2
17310;SDS011;8773;43.300;0.394;2023-03-01T00:00:03;8.63;;;7.97;;
17310;SDS011;8773;43.300;0.394;2023-03-01T00:02:33;8.57;;;7.87;;
17310;SDS011;8773;43.300;0.394;2023-03-01T00:05:03;8.90;;;8.17;;
17310;SDS011;8773;43.300;0.394;2023-03-01T00:07:33;9.23;;;8.43;;
17310;SDS011;8773;43.300;0.394;2023-03-01T00:10:02;9.80;;;8.80;;
17310;SDS011;8773;43.300;0.394;2023-03-01T00:12:30;8.97;;;8.27;;
17310;SDS011;8773;43.300;0.394;2023-03-01T00:14:58;10.70;;;9.30;;
17310;SDS011;8773;43.300;0.394;2023-03-01T00:17:27;10.97;;;10.00;;
17310;SDS011;8773;43.300;0.394;2023-03-01T00:19:55;9.70;;;8.80;;
17310;SDS011;8773;43.300;0.394;2023-03-01T00:22:25;10.80;;;9.80;;
17310;SDS011;8773;43.300;0.394;2023-03-01T00:24:55;11.73;;;9.87;;
17310;SDS011;8773;43.300;0.394;2023-03-01T00:27:23;10.97;;;9.90;;
17310;SDS011;8773;43.300;0.394;2023-03-01T00:29:51;10.67;;;9.67;;
17310;SDS011;8773;43.300;0.394;2023-03-01T00:32:20;10.20;;;9.20;;
17310;SDS011;8773;43.300;0.394;2023-03-01T00:34:48;10.27;;;9.30;;
17310;SDS011;8773;43.300;0.394;2023-03-01T00:37:20;10.60;;;9.50;;
17310;SDS011;8773;43.300;0.394;2023-03-01T00:39:50;9.73;;;8.83;;
17310;SDS011;8773;43.300;0.394;2023-03-01T00:42:18;10.07;;;9.07;;
17310;SDS011;8773;43.300;0.394;2023-03-01T00:44:46;9.00;;;8.20;;
17310;SDS011;8773;43.300;0.394;2023-03-01T00:47:14;10.50;;;9.13;;
17310;SDS011;8773;43.300;0.394;2023-03-01T00:49:42;10.90;;;8.60;;
17310;SDS011;8773;43.300;0.394;2023-03-01T00:52:10;9.87;;;8.90;;
17310;SDS011;8773;43.300;0.394;2023-03-01T00:54:38;9.20;;;8.30;;
17310;SDS011;8773;43.300;0.394;2023-03-01T00:57:08;9.60;;;8.67;;
17310;SDS011;8773;43.300;0.394;2023-03-01T00:59:36;12.67;;;8.90;;
17310;SDS011;8773;43.300;0.394;2023-03-01T01:02:04;11.27;;;9.87;;
17310;SDS011;8773;43.300;0.394;2023-03-01T01:04:32;9.97;;;8.97;;
17310;SDS011;8773;43.300;0.394;2023-03-01T01:07:00;11.70;;;9.10;;
17310;SDS011;8773;43.300;0.394;2023-03-01T01:09:28;9.37;;;8.57;;
17310;SDS011;8773;43.300;0.394;2023-03-01T01:11:56;9.43;;;8.73;;
17310;SDS011;8773;43.300;0.394;2023-03-01T01:14:26;9.03;;;8.23;;
17310;SDS011;8773;43.300;0.394;2023-03-01T01:16:54;8.17;;;7.47;;
17310;SDS011;8773;43.300;0.394;2023-03-01T01:19:22;7.93;;;7.23;;
17310;SDS011;8773;43.300;0.394;2023-03-01T01:21:50;8.50;;;7.83;;
17310;SDS011;8773;43.300;0.394;2023-03-01T01:24:19;8.20;;;7.60;;
17310;SDS011;8773;43.300;0.394;2023-03-01T01:26:48;8.10;;;7.33;;
17310;SDS011;8773;43.300;0.394;2023-03-01T01:29:16;8.07;;;7.40;;
17310;SDS011;8773;43.300;0.394;2023-03-01T01:31:46;7.73;;;7.20;;
17310;SDS011;8773;43.300;0.394;2023-03-01T01:34:15;8.20;;;7.40;;
17310;SDS011;8773;43.300;0.394;2023-03-01T01:36:47;9.13;;;8.23;;
17310;SDS011;8773;43.300;0.394;2023-03-01T01:39:16;7.87;;;7.37;;
17310;SDS011;8773;43.300;0.394;2023-03-01T01:41:44;9.07;;;8.17;;
17310;SDS011;8773;43.300;0.394;2023-03-01T01:44:14;9.17;;;8.27;;
17310;SDS011;8773;43.300;0.394;2023-03-01T01:46:47;9.07;;;8.17;;
17310;SDS011;8773;43.300;0.394;2023-03-01T01:49:25;10.23;;;9.30;;
17310;SDS011;8773;43.300;0.394;2023-03-01T01:52:03;10.73;;;9.73;;
17310;SDS011;8773;43.300;0.394;2023-03-01T01:54:38;10.40;;;9.50;;
17310;SDS011;8773;43.300;0.394;2023-03-01T01:57:17;9.90;;;9.00;;
17310;SDS011;8773;43.300;0.394;2023-03-01T01:59:47;10.07;;;9.03;;
17310;SDS011;8773;43.300;0.394;2023-03-01T02:02:19;9.40;;;8.60;;
17310;SDS011;8773;43.300;0.394;2023-03-01T02:04:48;9.90;;;9.00;;
17310;SDS011;8773;43.300;0.394;2023-03-01T02:07:21;8.97;;;8.27;;
17310;SDS011;8773;43.300;0.394;2023-03-01T02:09:51;10.37;;;9.20;;
17310;SDS011;8773;43.300;0.394;2023-03-01T02:12:20;9.63;;;8.73;;
17310;SDS011;8773;43.300;0.394;2023-03-01T02:14:52;8.97;;;8.13;;
17310;SDS011;8773;43.300;0.394;2023-03-01T02:17:21;9.47;;;8.73;;
17310;SDS011;8773;43.300;0.394;2023-03-01T02:19:53;9.50;;;8.70;;
17310;SDS011;8773;43.300;0.394;2023-03-01T02:22:34;9.30;;;8.50;;
17310;SDS011;8773;43.300;0.394;2023-03-01T02:25:07;9.57;;;8.50;;
17310;SDS011;8773;43.300;0.394;2023-03-01T02:27:47;9.27;;;8.23;;
17310;SDS011;8773;43.300;0.394;2023-03-01T02:30:22;9.80;;;9.00;;
17310;SDS011;8773;43.300;0.394;2023-03-01T02:32:52;8.73;;;7.93;;
17310;SDS011;8773;43.300;0.394;2023-03-01T02:35:23;10.17;;;9.37;;
17310;SDS011;8773;43.300;0.394;2023-03-01T02:37:51;9.70;;;8.90;;
17310;SDS011;8773;43.300;0.394;2023-03-01T02:40:23;9.80;;;8.97;;
17310;SDS011;8773;43.300;0.394;2023-03-01T02:42:52;8.73;;;8.03;;
17310;SDS011;8773;43.300;0.394;2023-03-01T02:45:24;9.37;;;8.57;;
17310;SDS011;8773;43.300;0.394;2023-03-01T02:47:53;9.33;;;8.53;;
17310;SDS011;8773;43.300;0.394;2023-03-01T02:50:31;9.07;;;8.47;;
17310;SDS011;8773;43.300;0.394;2023-03-01T02:53:15;9.50;;;8.70;;
17310;SDS011;8773;43.300;0.394;2023-03-01T02:55:47;9.73;;;8.83;;
17310;SDS011;8773;43.300;0.394;2023-03-01T02:58:15;10.50;;;9.40;;
17310;SDS011;8773;43.300;0.394;2023-03-01T03:00:45;10.43;;;9.53;;
17310;SDS011;8773;43.300;0.394;2023-03-01T03:03:16;10.30;;;9.40;;
17310;SDS011;8773;43.300;0.394;2023-03-01T03:05:46;9.90;;;9.00;;
17310;SDS011;8773;43.300;0.394;2023-03-01T03:08:15;9.97;;;9.07;;
17310;SDS011;8773;43.300;0.394;2023-03-01T03:10:50;11.10;;;10.20;;
17310;SDS011;8773;43.300;0.394;2023-03-01T03:13:19;10.10;;;9.20;;
17310;SDS011;8773;43.300;0.394;2023-03-01T03:15:49;10.53;;;9.63;;
17310;SDS011;8773;43.300;0.394;2023-03-01T03:18:18;11.63;;;10.63;;
17310;SDS011;8773;43.300;0.394;2023-03-01T03:20:46;11.23;;;10.23;;
17310;SDS011;8773;43.300;0.394;2023-03-01T03:23:19;12.00;;;11.00;;
17310;SDS011;8773;43.300;0.394;2023-03-01T03:25:48;11.20;;;10.33;;
17310;SDS011;8773;43.300;0.394;2023-03-01T03:28:17;11.03;;;10.10;;
17310;SDS011;8773;43.300;0.394;2023-03-01T03:30:45;10.43;;;9.60;;
17310;SDS011;8773;43.300;0.394;2023-03-01T03:33:15;11.10;;;10.17;;
17310;SDS011;8773;43.300;0.394;2023-03-01T03:35:44;11.60;;;10.63;;
17310;SDS011;8773;43.300;0.394;2023-03-01T03:38:15;10.93;;;10.03;;
17310;SDS011;8773;43.300;0.394;2023-03-01T03:40:47;11.33;;;10.43;;
17310;SDS011;8773;43.300;0.394;2023-03-01T03:43:17;12.03;;;11.00;;
17310;SDS011;8773;43.300;0.394;2023-03-01T03:45:47;11.33;;;10.27;;
17310;SDS011;8773;43.300;0.394;2023-03-01T03:48:18;10.83;;;9.80;;
17310;SDS011;8773;43.300;0.394;2023-03-01T03:50:47;10.90;;;10.00;;
17310;SDS011;8773;43.300;0.394;2023-03-01T03:53:20;11.03;;;10.13;;
17310;SDS011;8773;43.300;0.394;2023-03-01T03:55:49;11.70;;;10.70;;
17310;SDS011;8773;43.300;0.394;2023-03-01T03:58:18;11.83;;;10.80;;
17310;SDS011;8773;43.300;0.394;2023-03-01T04:00:48;11.93;;;10.83;;
17310;SDS011;8773;43.300;0.394;2023-03-01T04:03:19;12.57;;;11.43;;
17310;SDS011;8773;43.300;0.394;2023-03-01T04:05:48;12.70;;;11.40;;
17310;SDS011;8773;43.300;0.394;2023-03-01T04:08:17;12.73;;;11.53;;
17310;SDS011;8773;43.300;0.394;2023-03-01T04:10:51;12.20;;;11.20;;
17310;SDS011;8773;43.300;0.394;2023-03-01T04:13:21;11.80;;;10.80;;
17310;SDS011;8773;43.300;0.394;2023-03-01T04:15:51;12.30;;;11.10;;
17310;SDS011;8773;43.300;0.394;2023-03-01T04:18:22;12.17;;;11.13;;
17310;SDS011;8773;43.300;0.394;2023-03-01T04:20:52;12.40;;;11.20;;
17310;SDS011;8773;43.300;0.394;2023-03-01T04:23:22;12.10;;;11.10;;
17310;SDS011;8773;43.300;0.394;2023-03-01T04:25:51;12.67;;;11.47;;
17310;SDS011;8773;43.300;0.394;2023-03-01T04:28:22;12.07;;;11.07;;
17310;SDS011;8773;43.300;0.394;2023-03-01T04:30:51;11.97;;;10.90;;
17310;SDS011;8773;43.300;0.394;2023-03-01T04:33:21;10.30;;;9.40;;
17310;SDS011;8773;43.300;0.394;2023-03-01T04:35:50;9.37;;;8.47;;
17310;SDS011;8773;43.300;0.394;2023-03-01T04:38:19;10.07;;;9.23;;
17310;SDS011;8773;43.300;0.394;2023-03-01T04:40:47;10.67;;;9.67;;
17310;SDS011;8773;43.300;0.394;2023-03-01T04:43:15;10.87;;;9.97;;
17310;SDS011;8773;43.300;0.394;2023-03-01T04:45:44;10.97;;;10.07;;
17310;SDS011;8773;43.300;0.394;2023-03-01T04:48:12;10.13;;;9.23;;
17310;SDS011;8773;43.300;0.394;2023-03-01T04:50:41;10.43;;;9.53;;
17310;SDS011;8773;43.300;0.394;2023-03-01T04:53:09;10.17;;;9.10;;
17310;SDS011;8773;43.300;0.394;2023-03-01T04:55:37;10.83;;;9.93;;
17310;SDS011;8773;43.300;0.394;2023-03-01T04:58:05;10.93;;;9.93;;
17310;SDS011;8773;43.300;0.394;2023-03-01T05:00:53;9.83;;;9.03;;
17310;SDS011;8773;43.300;0.394;2023-03-01T05:03:24;10.07;;;9.27;;
17310;SDS011;8773;43.300;0.394;2023-03-01T05:05:58;10.63;;;9.70;;
17310;SDS011;8773;43.300;0.394;2023-03-01T05:08:27;10.00;;;9.20;;
17310;SDS011;8773;43.300;0.394;2023-03-01T05:10:55;10.80;;;9.80;;
17310;SDS011;8773;43.300;0.394;2023-03-01T05:13:23;9.93;;;9.07;;
17310;SDS011;8773;43.300;0.394;2023-03-01T05:15:53;10.40;;;9.50;;
17310;SDS011;8773;43.300;0.394;2023-03-01T05:18:22;10.23;;;9.40;;
17310;SDS011;8773;43.300;0.394;2023-03-01T05:20:52;10.10;;;9.20;;
17310;SDS011;8773;43.300;0.394;2023-03-01T05:23:26;10.80;;;9.90;;
17310;SDS011;8773;43.300;0.394;2023-03-01T05:25:57;10.60;;;9.67;;
17310;SDS011;8773;43.300;0.394;2023-03-01T05:28:26;10.77;;;9.77;;
17310;SDS011;8773;43.300;0.394;2023-03-01T05:30:56;11.00;;;10.13;;
17310;SDS011;8773;43.300;0.394;2023-03-01T05:33:25;10.87;;;10.03;;
17310;SDS011;8773;43.300;0.394;2023-03-01T05:35:53;10.77;;;9.83;;
17310;SDS011;8773;43.300;0.394;2023-03-01T05:38:21;10.90;;;10.03;;
17310;SDS011;8773;43.300;0.394;2023-03-01T05:40:51;10.90;;;10.00;;
17310;SDS011;8773;43.300;0.394;2023-03-01T05:43:22;11.17;;;10.27;;
17310;SDS011;8773;43.300;0.394;2023-03-01T05:45:53;10.33;;;9.33;;
17310;SDS011;8773;43.300;0.394;2023-03-01T05:48:24;11.13;;;10.23;;
17310;SDS011;8773;43.300;0.394;2023-03-01T05:50:52;11.07;;;10.07;;
17310;SDS011;8773;43.300;0.394;2023-03-01T05:53:20;10.80;;;9.90;;
17310;SDS011;8773;43.300;0.394;2023-03-01T05:55:48;12.30;;;11.10;;
17310;SDS011;8773;43.300;0.394;2023-03-01T05:58:19;11.57;;;10.67;;
17310;SDS011;8773;43.300;0.394;2023-03-01T06:00:48;11.10;;;10.20;;
17310;SDS011;8773;43.300;0.394;2023-03-01T06:03:19;12.47;;;11.27;;
17310;SDS011;8773;43.300;0.394;2023-03-01T06:05:47;11.30;;;10.30;;
17310;SDS011;8773;43.300;0.394;2023-03-01T06:08:15;11.87;;;10.70;;
17310;SDS011;8773;43.300;0.394;2023-03-01T06:10:43;11.33;;;10.23;;
17310;SDS011;8773;43.300;0.394;2023-03-01T06:13:11;10.93;;;9.97;;
17310;SDS011;8773;43.300;0.394;2023-03-01T06:15:40;12.10;;;10.90;;
17310;SDS011;8773;43.300;0.394;2023-03-01T06:18:09;10.90;;;10.10;;
17310;SDS011;8773;43.300;0.394;2023-03-01T06:20:37;11.40;;;10.43;;
17310;SDS011;8773;43.300;0.394;2023-03-01T06:23:05;10.93;;;9.93;;
17310;SDS011;8773;43.300;0.394;2023-03-01T06:25:35;11.23;;;10.07;;
17310;SDS011;8773;43.300;0.394;2023-03-01T06:28:03;10.47;;;9.57;;
17310;SDS011;8773;43.300;0.394;2023-03-01T06:30:31;11.37;;;10.27;;
17310;SDS011;8773;43.300;0.394;2023-03-01T06:33:01;11.80;;;10.67;;
17310;SDS011;8773;43.300;0.394;2023-03-01T06:35:30;10.60;;;9.70;;
17310;SDS011;8773;43.300;0.394;2023-03-01T06:37:59;11.70;;;10.70;;
17310;SDS011;8773;43.300;0.394;2023-03-01T06:40:28;13.30;;;10.63;;
17310;SDS011;8773;43.300;0.394;2023-03-01T06:42:57;12.00;;;11.10;;
17310;SDS011;8773;43.300;0.394;2023-03-01T06:45:27;12.13;;;10.93;;
17310;SDS011;8773;43.300;0.394;2023-03-01T06:48:02;12.60;;;11.53;;
17310;SDS011;8773;43.300;0.394;2023-03-01T06:50:32;11.73;;;10.63;;
17310;SDS011;8773;43.300;0.394;2023-03-01T06:53:00;11.77;;;10.60;;
17310;SDS011;8773;43.300;0.394;2023-03-01T06:55:29;11.37;;;10.27;;
17310;SDS011;8773;43.300;0.394;2023-03-01T06:57:58;11.77;;;10.77;;
17310;SDS011;8773;43.300;0.394;2023-03-01T07:00:27;11.87;;;10.80;;
17310;SDS011;8773;43.300;0.394;2023-03-01T07:02:59;12.27;;;11.10;;
17310;SDS011;8773;43.300;0.394;2023-03-01T07:05:30;11.73;;;10.73;;
17310;SDS011;8773;43.300;0.394;2023-03-01T07:07:58;11.53;;;10.57;;
17310;SDS011;8773;43.300;0.394;2023-03-01T07:10:26;11.60;;;10.67;;
17310;SDS011;8773;43.300;0.394;2023-03-01T07:12:55;11.90;;;10.83;;
17310;SDS011;8773;43.300;0.394;2023-03-01T07:15:24;11.63;;;10.50;;
17310;SDS011;8773;43.300;0.394;2023-03-01T07:17:53;12.53;;;11.40;;
17310;SDS011;8773;43.300;0.394;2023-03-01T07:20:21;12.40;;;11.20;;
17310;SDS011;8773;43.300;0.394;2023-03-01T07:22:53;13.17;;;11.83;;
17310;SDS011;8773;43.300;0.394;2023-03-01T07:25:22;12.70;;;11.40;;
17310;SDS011;8773;43.300;0.394;2023-03-01T07:27:51;12.57;;;11.47;;
17310;SDS011;8773;43.300;0.394;2023-03-01T07:30:19;12.87;;;11.67;;
17310;SDS011;8773;43.300;0.394;2023-03-01T07:32:48;14.30;;;12.47;;
17310;SDS011;8773;43.300;0.394;2023-03-01T07:35:21;13.83;;;12.10;;
17310;SDS011;8773;43.300;0.394;2023-03-01T07:37:53;13.67;;;12.40;;
17310;SDS011;8773;43.300;0.394;2023-03-01T07:40:21;14.70;;;13.33;;
17310;SDS011;8773;43.300;0.394;2023-03-01T07:42:54;14.87;;;13.33;;
17310;SDS011;8773;43.300;0.394;2023-03-01T07:45:23;15.93;;;14.43;;
17310;SDS011;8773;43.300;0.394;2023-03-01T07:47:51;16.33;;;14.70;;
17310;SDS011;8773;43.300;0.394;2023-03-01T07:50:20;16.87;;;14.07;;
17310;SDS011;8773;43.300;0.394;2023-03-01T07:52:49;15.33;;;13.93;;
17310;SDS011;8773;43.300;0.394;2023-03-01T07:55:18;17.70;;;14.20;;
17310;SDS011;8773;43.300;0.394;2023-03-01T07:57:46;17.70;;;13.40;;
17310;SDS011;8773;43.300;0.394;2023-03-01T08:00:15;13.50;;;12.30;;
17310;SDS011;8773;43.300;0.394;2023-03-01T08:02:43;14.40;;;12.93;;
17310;SDS011;8773;43.300;0.394;2023-03-01T08:05:12;16.17;;;13.33;;
17310;SDS011;8773;43.300;0.394;2023-03-01T08:07:40;14.20;;;12.73;;
17310;SDS011;8773;43.300;0.394;2023-03-01T08:10:08;13.10;;;11.80;;
17310;SDS011;8773;43.300;0.394;2023-03-01T08:12:42;13.10;;;11.70;;
17310;SDS011;8773;43.300;0.394;2023-03-01T08:15:10;12.93;;;11.63;;
17310;SDS011;8773;43.300;0.394;2023-03-01T08:17:39;12.13;;;10.87;;
17310;SDS011;8773;43.300;0.394;2023-03-01T08:20:09;12.27;;;11.07;;
17310;SDS011;8773;43.300;0.394;2023-03-01T08:22:39;12.03;;;10.83;;
17310;SDS011;8773;43.300;0.394;2023-03-01T08:25:07;12.07;;;10.87;;
17310;SDS011;8773;43.300;0.394;2023-03-01T08:27:35;11.80;;;10.67;;
17310;SDS011;8773;43.300;0.394;2023-03-01T08:30:06;12.63;;;11.37;;
17310;SDS011;8773;43.300;0.394;2023-03-01T08:32:35;13.60;;;12.20;;
17310;SDS011;8773;43.300;0.394;2023-03-01T08:35:05;18.20;;;12.10;;
17310;SDS011;8773;43.300;0.394;2023-03-01T08:37:33;16.70;;;12.70;;
17310;SDS011;8773;43.300;0.394;2023-03-01T08:40:01;13.37;;;12.00;;
17310;SDS011;8773;43.300;0.394;2023-03-01T08:42:33;12.40;;;11.20;;
17310;SDS011;8773;43.300;0.394;2023-03-01T08:45:01;12.33;;;11.03;;
17310;SDS011;8773;43.300;0.394;2023-03-01T08:47:31;12.03;;;11.07;;
17310;SDS011;8773;43.300;0.394;2023-03-01T08:50:00;12.90;;;11.47;;
17310;SDS011;8773;43.300;0.394;2023-03-01T08:52:28;11.90;;;10.53;;
17310;SDS011;8773;43.300;0.394;2023-03-01T08:54:56;12.57;;;11.30;;
17310;SDS011;8773;43.300;0.394;2023-03-01T08:57:24;12.33;;;11.03;;
17310;SDS011;8773;43.300;0.394;2023-03-01T08:59:52;12.20;;;10.97;;
17310;SDS011;8773;43.300;0.394;2023-03-01T09:02:22;11.67;;;10.47;;
17310;SDS011;8773;43.300;0.394;2023-03-01T09:04:52;11.17;;;10.13;;
17310;SDS011;8773;43.300;0.394;2023-03-01T09:07:20;10.73;;;9.93;;
17310;SDS011;8773;43.300;0.394;2023-03-01T09:09:48;10.47;;;9.60;;
17310;SDS011;8773;43.300;0.394;2023-03-01T09:12:19;10.27;;;9.40;;
17310;SDS011;8773;43.300;0.394;2023-03-01T09:14:47;9.17;;;8.27;;
17310;SDS011;8773;43.300;0.394;2023-03-01T09:17:15;8.87;;;8.17;;
17310;SDS011;8773;43.300;0.394;2023-03-01T09:19:46;9.50;;;8.80;;
17310;SDS011;8773;43.300;0.394;2023-03-01T09:22:15;9.83;;;8.90;;
17310;SDS011;8773;43.300;0.394;2023-03-01T09:24:43;9.63;;;8.73;;
17310;SDS011;8773;43.300;0.394;2023-03-01T09:27:11;10.43;;;9.43;;
17310;SDS011;8773;43.300;0.394;2023-03-01T09:29:41;10.37;;;9.23;;
17310;SDS011;8773;43.300;0.394;2023-03-01T09:32:09;9.80;;;8.90;;
17310;SDS011;8773;43.300;0.394;2023-03-01T09:34:37;9.40;;;8.60;;
17310;SDS011;8773;43.300;0.394;2023-03-01T09:37:20;9.40;;;8.70;;
17310;SDS011;8773;43.300;0.394;2023-03-01T09:39:48;9.30;;;8.50;;
17310;SDS011;8773;43.300;0.394;2023-03-01T09:42:16;10.30;;;9.50;;
17310;SDS011;8773;43.300;0.394;2023-03-01T09:44:46;11.57;;;10.67;;
17310;SDS011;8773;43.300;0.394;2023-03-01T09:47:18;10.43;;;9.57;;
17310;SDS011;8773;43.300;0.394;2023-03-01T09:49:51;10.33;;;9.50;;
17310;SDS011;8773;43.300;0.394;2023-03-01T09:52:30;9.97;;;9.17;;
17310;SDS011;8773;43.300;0.394;2023-03-01T09:55:08;9.60;;;8.80;;
17310;SDS011;8773;43.300;0.394;2023-03-01T09:57:41;9.60;;;8.67;;
17310;SDS011;8773;43.300;0.394;2023-03-01T10:00:23;10.73;;;9.80;;
17310;SDS011;8773;43.300;0.394;2023-03-01T10:03:02;9.70;;;8.90;;
17310;SDS011;8773;43.300;0.394;2023-03-01T10:05:50;8.87;;;8.20;;
17310;SDS011;8773;43.300;0.394;2023-03-01T10:08:27;9.37;;;8.67;;
17310;SDS011;8773;43.300;0.394;2023-03-01T10:11:00;10.47;;;9.47;;
17310;SDS011;8773;43.300;0.394;2023-03-01T10:13:29;9.80;;;9.10;;
17310;SDS011;8773;43.300;0.394;2023-03-01T10:16:06;10.40;;;9.60;;
17310;SDS011;8773;43.300;0.394;2023-03-01T10:18:41;11.53;;;10.53;;
17310;SDS011;8773;43.300;0.394;2023-03-01T10:21:14;10.90;;;10.00;;
17310;SDS011;8773;43.300;0.394;2023-03-01T10:23:46;9.33;;;8.73;;
17310;SDS011;8773;43.300;0.394;2023-03-01T10:26:24;9.40;;;8.57;;
17310;SDS011;8773;43.300;0.394;2023-03-01T10:29:05;9.20;;;8.50;;
17310;SDS011;8773;43.300;0.394;2023-03-01T10:31:40;9.83;;;8.93;;
17310;SDS011;8773;43.300;0.394;2023-03-01T10:34:11;9.80;;;8.90;;
17310;SDS011;8773;43.300;0.394;2023-03-01T10:36:50;9.50;;;8.70;;
17310;SDS011;8773;43.300;0.394;2023-03-01T10:39:22;8.77;;;8.10;;
17310;SDS011;8773;43.300;0.394;2023-03-01T10:41:52;8.77;;;8.07;;
17310;SDS011;8773;43.300;0.394;2023-03-01T10:47:14;8.97;;;8.20;;
17310;SDS011;8773;43.300;0.394;2023-03-01T10:49:57;9.03;;;8.33;;
17310;SDS011;8773;43.300;0.394;2023-03-01T10:52:28;9.30;;;8.60;;
17310;SDS011;8773;43.300;0.394;2023-03-01T10:55:01;8.30;;;7.60;;
17310;SDS011;8773;43.300;0.394;2023-03-01T10:57:50;9.03;;;8.30;;
17310;SDS011;8773;43.300;0.394;2023-03-01T11:00:45;10.47;;;9.67;;
17310;SDS011;8773;43.300;0.394;2023-03-01T11:03:16;10.43;;;9.43;;
17310;SDS011;8773;43.300;0.394;2023-03-01T11:05:51;9.63;;;8.87;;
17310;SDS011;8773;43.300;0.394;2023-03-01T11:08:35;9.57;;;8.87;;
17310;SDS011;8773;43.300;0.394;2023-03-01T11:13:58;8.57;;;7.97;;
17310;SDS011;8773;43.300;0.394;2023-03-01T11:16:36;9.40;;;8.50;;
17310;SDS011;8773;43.300;0.394;2023-03-01T11:19:17;9.60;;;8.80;;
17310;SDS011;8773;43.300;0.394;2023-03-01T11:21:52;9.10;;;8.30;;
17310;SDS011;8773;43.300;0.394;2023-03-01T11:24:27;9.30;;;8.50;;
17310;SDS011;8773;43.300;0.394;2023-03-01T11:27:03;9.20;;;8.50;;
17310;SDS011;8773;43.300;0.394;2023-03-01T11:29:38;9.33;;;8.50;;
17310;SDS011;8773;43.300;0.394;2023-03-01T11:32:14;10.23;;;9.37;;
17310;SDS011;8773;43.300;0.394;2023-03-01T11:34:43;10.17;;;9.37;;
17310;SDS011;8773;43.300;0.394;2023-03-01T11:37:22;8.53;;;7.83;;
17310;SDS011;8773;43.300;0.394;2023-03-01T11:40:03;9.80;;;9.00;;
17310;SDS011;8773;43.300;0.394;2023-03-01T11:42:50;9.20;;;8.40;;
17310;SDS011;8773;43.300;0.394;2023-03-01T11:45:29;8.63;;;7.93;;
17310;SDS011;8773;43.300;0.394;2023-03-01T11:48:09;8.90;;;8.20;;
17310;SDS011;8773;43.300;0.394;2023-03-01T11:50:57;8.70;;;8.10;;
17310;SDS011;8773;43.300;0.394;2023-03-01T11:53:42;8.80;;;8.10;;
17310;SDS011;8773;43.300;0.394;2023-03-01T11:56:27;9.00;;;8.40;;
17310;SDS011;8773;43.300;0.394;2023-03-01T11:59:09;8.97;;;8.10;;
17310;SDS011;8773;43.300;0.394;2023-03-01T12:01:56;9.10;;;8.40;;
17310;SDS011;8773;43.300;0.394;2023-03-01T12:04:54;9.07;;;8.37;;
17310;SDS011;8773;43.300;0.394;2023-03-01T12:07:45;9.50;;;8.70;;
17310;SDS011;8773;43.300;0.394;2023-03-01T12:10:22;8.90;;;8.20;;
17310;SDS011;8773;43.300;0.394;2023-03-01T12:12:58;8.83;;;8.20;;
17310;SDS011;8773;43.300;0.394;2023-03-01T12:15:48;8.67;;;7.93;;
17310;SDS011;8773;43.300;0.394;2023-03-01T12:18:29;8.70;;;8.00;;
17310;SDS011;8773;43.300;0.394;2023-03-01T12:21:12;8.10;;;7.60;;
17310;SDS011;8773;43.300;0.394;2023-03-01T12:24:00;8.90;;;8.27;;
17310;SDS011;8773;43.300;0.394;2023-03-01T12:26:44;8.63;;;7.93;;
17310;SDS011;8773;43.300;0.394;2023-03-01T12:29:23;8.63;;;7.93;;
17310;SDS011;8773;43.300;0.394;2023-03-01T12:32:04;8.70;;;8.00;;
17310;SDS011;8773;43.300;0.394;2023-03-01T12:37:36;8.70;;;8.10;;
17310;SDS011;8773;43.300;0.394;2023-03-01T12:40:18;8.43;;;7.83;;
17310;SDS011;8773;43.300;0.394;2023-03-01T12:43:08;9.50;;;8.80;;
17310;SDS011;8773;43.300;0.394;2023-03-01T12:45:48;9.40;;;8.50;;
17310;SDS011;8773;43.300;0.394;2023-03-01T12:48:30;8.90;;;8.20;;
17310;SDS011;8773;43.300;0.394;2023-03-01T12:51:09;9.63;;;8.83;;
17310;SDS011;8773;43.300;0.394;2023-03-01T12:53:42;9.20;;;8.60;;
17310;SDS011;8773;43.300;0.394;2023-03-01T12:56:18;10.27;;;9.47;;
17310;SDS011;8773;43.300;0.394;2023-03-01T12:58:51;8.73;;;8.10;;
17310;SDS011;8773;43.300;0.394;2023-03-01T13:01:31;9.53;;;8.67;;
17310;SDS011;8773;43.300;0.394;2023-03-01T13:04:08;9.00;;;8.33;;
17310;SDS011;8773;43.300;0.394;2023-03-01T13:06:46;8.37;;;7.77;;
17310;SDS011;8773;43.300;0.394;2023-03-01T13:09:28;8.73;;;8.13;;
17310;SDS011;8773;43.300;0.394;2023-03-01T13:12:01;9.03;;;8.23;;
17310;SDS011;8773;43.300;0.394;2023-03-01T13:14:44;9.20;;;8.40;;
17310;SDS011;8773;43.300;0.394;2023-03-01T13:20:02;9.10;;;8.40;;
17310;SDS011;8773;43.300;0.394;2023-03-01T13:22:39;8.70;;;7.90;;
17310;SDS011;8773;43.300;0.394;2023-03-01T13:25:20;8.63;;;7.93;;
17310;SDS011;8773;43.300;0.394;2023-03-01T13:30:58;7.87;;;7.27;;
17310;SDS011;8773;43.300;0.394;2023-03-01T13:33:38;7.70;;;7.10;;
17310;SDS011;8773;43.300;0.394;2023-03-01T13:36:45;8.70;;;8.00;;
17310;SDS011;8773;43.300;0.394;2023-03-01T13:39:26;7.93;;;7.30;;
17310;SDS011;8773;43.300;0.394;2023-03-01T13:41:59;8.70;;;8.00;;
17310;SDS011;8773;43.300;0.394;2023-03-01T13:44:30;8.23;;;7.63;;
17310;SDS011;8773;43.300;0.394;2023-03-01T13:47:05;8.13;;;7.50;;
17310;SDS011;8773;43.300;0.394;2023-03-01T13:49:45;8.10;;;7.50;;
17310;SDS011;8773;43.300;0.394;2023-03-01T13:52:36;8.90;;;8.10;;
17310;SDS011;8773;43.300;0.394;2023-03-01T13:55:14;8.30;;;7.70;;
17310;SDS011;8773;43.300;0.394;2023-03-01T13:57:46;8.60;;;8.00;;
17310;SDS011;8773;43.300;0.394;2023-03-01T14:00:28;7.90;;;7.40;;
17310;SDS011;8773;43.300;0.394;2023-03-01T14:02:59;7.93;;;7.33;;
17310;SDS011;8773;43.300;0.394;2023-03-01T14:05:32;8.27;;;7.67;;
17310;SDS011;8773;43.300;0.394;2023-03-01T14:08:04;8.13;;;7.53;;
17310;SDS011;8773;43.300;0.394;2023-03-01T14:10:35;8.07;;;7.47;;
17310;SDS011;8773;43.300;0.394;2023-03-01T14:13:20;8.03;;;7.53;;
17310;SDS011;8773;43.300;0.394;2023-03-01T14:16:04;8.80;;;8.17;;
17310;SDS011;8773;43.300;0.394;2023-03-01T14:18:46;8.00;;;7.50;;
17310;SDS011;8773;43.300;0.394;2023-03-01T14:21:22;8.00;;;7.50;;
17310;SDS011;8773;43.300;0.394;2023-03-01T14:23:53;7.97;;;7.27;;
17310;SDS011;8773;43.300;0.394;2023-03-01T14:26:22;8.13;;;7.53;;
17310;SDS011;8773;43.300;0.394;2023-03-01T14:28:51;8.17;;;7.67;;
17310;SDS011;8773;43.300;0.394;2023-03-01T14:31:30;8.27;;;7.67;;
17310;SDS011;8773;43.300;0.394;2023-03-01T14:34:18;7.67;;;7.27;;
17310;SDS011;8773;43.300;0.394;2023-03-01T14:36:47;8.37;;;7.80;;
17310;SDS011;8773;43.300;0.394;2023-03-01T14:39:18;8.83;;;7.93;;
17310;SDS011;8773;43.300;0.394;2023-03-01T14:41:47;8.73;;;8.13;;
17310;SDS011;8773;43.300;0.394;2023-03-01T14:44:16;8.30;;;7.70;;
17310;SDS011;8773;43.300;0.394;2023-03-01T14:46:54;9.10;;;8.40;;
17310;SDS011;8773;43.300;0.394;2023-03-01T14:49:24;8.07;;;7.57;;
17310;SDS011;8773;43.300;0.394;2023-03-01T14:51:55;7.90;;;7.37;;
17310;SDS011;8773;43.300;0.394;2023-03-01T14:54:29;8.23;;;7.67;;
17310;SDS011;8773;43.300;0.394;2023-03-01T14:57:05;8.67;;;7.90;;
17310;SDS011;8773;43.300;0.394;2023-03-01T14:59:33;8.07;;;7.57;;
17310;SDS011;8773;43.300;0.394;2023-03-01T15:02:01;7.63;;;7.13;;
17310;SDS011;8773;43.300;0.394;2023-03-01T15:04:30;8.13;;;7.57;;
17310;SDS011;8773;43.300;0.394;2023-03-01T15:07:00;7.67;;;7.17;;
17310;SDS011;8773;43.300;0.394;2023-03-01T15:09:34;7.50;;;7.10;;
17310;SDS011;8773;43.300;0.394;2023-03-01T15:15:18;7.73;;;7.10;;
17310;SDS011;8773;43.300;0.394;2023-03-01T15:17:58;7.73;;;7.13;;
17310;SDS011;8773;43.300;0.394;2023-03-01T15:20:28;7.50;;;7.00;;
17310;SDS011;8773;43.300;0.394;2023-03-01T15:23:01;9.17;;;8.37;;
17310;SDS011;8773;43.300;0.394;2023-03-01T15:25:32;9.37;;;8.67;;
17310;SDS011;8773;43.300;0.394;2023-03-01T15:28:01;8.53;;;8.03;;
17310;SDS011;8773;43.300;0.394;2023-03-01T15:30:31;8.17;;;7.67;;
17310;SDS011;8773;43.300;0.394;2023-03-01T15:33:17;8.60;;;8.00;;
17310;SDS011;8773;43.300;0.394;2023-03-01T15:35:48;8.10;;;7.40;;
17310;SDS011;8773;43.300;0.394;2023-03-01T15:38:24;8.90;;;8.20;;